Time;durP1;ratioP1;P1;durP2;ratioP2;P2;SDS_P1;SDS_P2;PMS_P1;PMS_P2;Temp;Humidity;BMP_temperature;BMP_pressure;BME280_temperature;BME280_humidity;BME280_pressure;Samples;Min_cycle;Max_cycle;Signal;HPM_P1;HPM_P2
2021/11/21 00:00:16;;;;;;;26.02;15.52;;;;;;;13.27;54.49;101432.25;4221086;28;19923;-57
2021/11/21 00:02:18;;;;;;;21.02;14.07;;;;;;;13.28;54.78;101433.13;4224057;28;20324;-57
2021/11/21 00:04:21;;;;;;;22.20;14.68;;;;;;;13.23;54.68;101427.13;4223467;28;20044;-57
2021/11/21 00:06:23;;;;;;;;;;;;;;;13.27;54.69;101424.31;4224063;28;20040;-57
2021/11/21 00:08:25;;;;;;;23.38;15.23;;;;;;;13.27;54.76;101423.47;4223574;28;19922;-57
2021/11/21 00:10:30;;;;;;;24.38;14.25;;;;;;;13.25;54.56;101425.28;4223628;28;20062;-57
2021/11/21 00:12:32;;;;;;;23.23;15.07;;;;;;;13.24;54.74;101411.25;4223580;28;20047;-57
2021/11/21 00:14:34;;;;;;;21.65;14.00;;;;;;;13.25;54.57;101412.09;4223561;28;20043;-57
2021/11/21 00:16:36;;;;;;;;;;;;;;;13.25;54.81;101412.94;4224114;28;20077;-59
2021/11/21 00:18:38;;;;;;;22.63;14.60;;;;;;;13.23;54.77;101406.88;4223518;28;19923;-59
2021/11/21 00:20:42;;;;;;;21.92;14.00;;;;;;;13.20;54.59;101392.91;4223552;28;20085;-58
2021/11/21 00:22:46;;;;;;;21.65;14.27;;;;;;;13.23;54.58;101398.06;4223635;28;20051;-58
2021/11/21 00:24:48;;;;;;;21.60;14.15;;;;;;;13.22;54.74;101396.34;4223434;28;20040;-57
2021/11/21 00:26:50;;;;;;;21.33;14.18;;;;;;;13.23;54.88;101398.06;4223451;28;20048;-58
2021/11/21 00:28:52;;;;;;;21.85;13.88;;;;;;;13.22;54.85;101394.56;4223338;28;20047;-59
2021/11/21 00:30:54;;;;;;;;;;;;;;;13.22;54.74;101389.28;4223729;28;20058;-59
2021/11/21 00:32:56;;;;;;;22.00;13.32;;;;;;;13.21;54.91;101392.00;4223397;28;20219;-59
2021/11/21 00:34:58;;;;;;;;;;;;;;;13.20;54.87;101385.84;4223688;28;20062;-60
2021/11/21 00:37:00;;;;;;;20.92;13.60;;;;;;;13.19;54.85;101388.53;4223361;28;19916;-57
2021/11/21 00:39:03;;;;;;;19.38;12.90;;;;;;;13.19;54.95;101389.38;4223276;28;20044;-58
2021/11/21 00:41:06;;;;;;;19.85;12.90;;;;;;;13.19;54.85;101385.91;4219743;28;20040;-57
2021/11/21 00:43:08;;;;;;;21.52;13.57;;;;;;;13.19;54.91;101384.09;4223568;28;20324;-58
2021/11/21 00:45:10;;;;;;;19.40;12.80;;;;;;;13.16;55.02;101368.38;4223081;28;20040;-57
2021/11/21 00:47:13;;;;;;;20.75;13.20;;;;;;;13.18;54.91;101368.31;4223268;28;20324;-57
2021/11/21 00:49:17;;;;;;;;;;;;;;;13.17;54.94;101367.47;4223640;28;20382;-58
2021/11/21 00:51:19;;;;;;;18.67;12.30;;;;;;;13.12;55.10;101360.63;4222387;28;19915;-57
2021/11/21 00:53:21;;;;;;;;;;;;;;;13.15;54.98;101371.94;4223740;28;20044;-57
2021/11/21 00:55:33;;;;;;;18.75;12.40;;;;;;;13.15;54.67;101377.22;4222934;28;20144;-57
2021/11/21 00:57:37;;;;;;;18.65;12.38;;;;;;;13.15;55.02;101377.22;4223124;28;20044;-57
2021/11/21 00:59:39;;;;;;;18.25;12.32;;;;;;;13.15;54.96;101371.06;4222884;28;20044;-58
2021/11/21 01:01:41;;;;;;;;;;;;;;;13.15;54.93;101360.50;4223391;28;20052;-58
2021/11/21 01:03:43;;;;;;;17.00;11.48;;;;;;;13.10;55.02;101364.16;4223024;28;19922;-58
2021/11/21 01:05:47;;;;;;;17.05;11.95;;;;;;;13.10;55.04;101364.16;4222718;28;20081;-58
2021/11/21 01:07:49;;;;;;;19.13;12.60;;;;;;;13.12;54.79;101363.25;4222935;28;20067;-57
2021/11/21 01:09:51;;;;;;;;;;;;;;;13.13;55.17;101357.06;4222349;28;20085;-57
2021/11/21 01:11:56;;;;;;;19.27;12.23;;;;;;;13.10;55.05;101345.69;4222304;28;19916;-57
2021/11/21 01:14:00;;;;;;;16.95;11.30;;;;;;;13.12;55.00;101356.19;4206176;28;20373;-58
2021/11/21 01:16:02;;;;;;;19.10;11.57;;;;;;;13.12;55.17;101357.97;4214194;28;20103;-60
2021/11/21 01:18:05;;;;;;;17.77;11.25;;;;;;;13.12;54.86;101353.53;4222617;28;20047;-59
2021/11/21 01:20:09;;;;;;;18.27;11.68;;;;;;;13.11;54.92;101351.84;4222754;28;20043;-57
2021/11/21 01:22:12;;;;;;;17.80;11.48;;;;;;;13.06;55.01;101346.72;4222500;28;20043;-58
2021/11/21 01:24:14;;;;;;;18.48;12.18;;;;;;;13.11;55.09;101357.13;4222623;28;20044;-55
2021/11/21 01:26:16;;;;;;;17.80;11.27;;;;;;;13.10;55.14;101352.75;4222536;28;20044;-57
2021/11/21 01:28:18;;;;;;;;;;;;;;;13.09;54.86;101356.31;4222990;28;20047;-55
2021/11/21 01:30:26;;;;;;;17.42;11.02;;;;;;;13.09;55.06;101356.31;4222764;28;20142;-57
2021/11/21 01:32:28;;;;;;;18.33;11.20;;;;;;;13.07;55.18;101356.38;4222357;28;20433;-57
2021/11/21 01:34:30;;;;;;;16.33;11.07;;;;;;;13.08;55.18;101358.06;4222543;28;20271;-58
2021/11/21 01:36:32;;;;;;;17.95;11.75;;;;;;;13.08;55.15;101358.06;4222187;28;20051;-58
2021/11/21 01:38:35;;;;;;;;;;;;;;;13.07;55.00;101351.09;4222884;28;20339;-57
2021/11/21 01:40:37;;;;;;;15.73;10.25;;;;;;;13.06;54.87;101354.66;4222342;28;20208;-57
2021/11/21 01:42:40;;;;;;;;;;;;;;;13.06;55.23;101357.28;4222652;28;20044;-57
2021/11/21 01:44:42;;;;;;;16.00;10.40;;;;;;;13.00;55.15;101338.16;4222338;28;19931;-57
2021/11/21 01:46:44;;;;;;;16.52;10.80;;;;;;;13.06;55.01;101344.09;4222094;28;20036;-57
2021/11/21 01:48:47;;;;;;;16.70;10.90;;;;;;;13.05;55.02;101349.41;4211191;28;20040;-55
2021/11/21 01:50:50;;;;;;;17.15;10.65;;;;;;;13.06;55.14;101351.13;4222218;28;20090;-57
2021/11/21 01:52:52;;;;;;;16.08;10.95;;;;;;;13.05;55.06;101352.03;4222026;28;20047;-58
2021/11/21 01:54:54;;;;;;;17.55;10.85;;;;;;;12.87;55.09;101316.63;4222071;28;20077;-57
2021/11/21 01:56:56;;;;;;;;;;;;;;;13.04;55.27;101339.78;4222578;28;20048;-57
2021/11/21 01:58:58;;;;;;;16.05;9.90;;;;;;;13.04;55.14;101352.97;4222022;28;19916;-57
2021/11/21 02:01:00;;;;;;;16.55;10.93;;;;;;;13.01;55.32;101332.81;4222162;28;20266;-57
2021/11/21 02:03:03;;;;;;;16.13;10.68;;;;;;;13.03;55.38;101338.06;4221849;28;20036;-59
2021/11/21 02:05:06;;;;;;;15.13;10.27;;;;;;;12.86;55.08;101312.25;4221977;28;20052;-57
2021/11/21 02:07:08;;;;;;;15.90;10.73;;;;;;;13.02;55.33;101341.59;4221958;28;20047;-57
2021/11/21 02:09:10;;;;;;;15.93;10.65;;;;;;;13.02;55.31;101337.19;4221832;28;20047;-57
2021/11/21 02:11:12;;;;;;;15.80;11.13;;;;;;;13.01;55.07;101331.97;4222020;28;20113;-57
2021/11/21 02:13:14;;;;;;;16.95;10.43;;;;;;;12.98;55.19;101330.28;4221688;28;20058;-58
2021/11/21 02:15:18;;;;;;;;;;;;;;;13.00;55.22;101333.75;4222446;28;20240;-58
2021/11/21 02:17:24;;;;;;;16.88;10.82;;;;;;;12.95;55.28;101327.75;4221538;28;19916;-57
2021/11/21 02:19:26;;;;;;;15.07;10.10;;;;;;;13.00;55.19;101322.31;4221736;28;20093;-60
2021/11/21 02:21:28;;;;;;;;;;;;;;;13.00;55.32;101322.31;4222246;28;20051;-59
2021/11/21 02:23:31;;;;;;;14.82;9.70;;;;;;;12.98;55.14;101308.28;4221116;28;19915;-58
2021/11/21 02:25:35;;;;;;;15.68;10.30;;;;;;;12.99;55.42;101310.03;4221590;28;20044;-61
2021/11/21 02:27:37;;;;;;;16.67;10.38;;;;;;;12.98;55.41;101306.53;4221512;28;20047;-58
2021/11/21 02:29:39;;;;;;;16.30;9.77;;;;;;;12.98;55.38;101303.88;4221569;28;20047;-60
2021/11/21 02:31:42;;;;;;;;;;;;;;;12.97;55.22;101299.53;4222113;28;20043;-60
2021/11/21 02:33:45;;;;;;;16.73;10.00;;;;;;;12.95;55.30;101303.97;4221440;28;19916;-58
2021/11/21 02:35:51;;;;;;;17.27;10.65;;;;;;;12.95;55.40;101298.72;4221315;28;20051;-58
2021/11/21 02:37:53;;;;;;;16.80;10.70;;;;;;;12.96;55.14;101300.44;4221522;28;20078;-58
2021/11/21 02:39:55;;;;;;;15.85;10.50;;;;;;;12.97;55.37;101306.59;4221672;28;20316;-58
2021/11/21 02:41:57;;;;;;;;;;;;;;;12.96;55.24;101302.22;4222060;28;20044;-60
2021/11/21 02:44:00;;;;;;;;;;;;;;;12.95;55.22;101301.34;4221621;28;20085;-60
2021/11/21 02:46:02;;;;;;;16.05;10.63;;;;;;;12.94;55.40;101297.84;4220314;28;19958;-58
2021/11/21 02:48:06;;;;;;;15.70;10.13;;;;;;;12.87;55.47;101285.78;4221425;28;20086;-59
2021/11/21 02:50:15;;;;;;;17.33;10.95;;;;;;;12.89;55.15;101283.97;4221281;28;20044;-60
2021/11/21 02:52:17;;;;;;;16.17;10.82;;;;;;;12.93;55.12;101287.34;4204613;28;20040;-58
2021/11/21 02:54:19;;;;;;;15.45;10.13;;;;;;;12.92;55.19;101283.00;4212816;28;20040;-58
2021/11/21 02:56:21;;;;;;;14.90;9.88;;;;;;;12.93;55.35;101282.06;4221415;28;20236;-59
2021/11/21 02:58:24;;;;;;;;;;;;;;;12.92;55.45;101278.56;4222045;28;20059;-59
2021/11/21 03:00:27;;;;;;;15.82;9.63;;;;;;;12.90;55.19;101276.91;4221152;28;19927;-58
2021/11/21 03:02:29;;;;;;;15.63;10.35;;;;;;;12.88;55.49;101263.75;4221284;28;20067;-58
2021/11/21 03:04:31;;;;;;;15.38;10.02;;;;;;;12.91;55.21;101273.34;4221138;28;20051;-60
2021/11/21 03:06:36;;;;;;;15.18;10.18;;;;;;;12.90;55.52;101267.22;4221360;28;20044;-60
2021/11/21 03:08:40;;;;;;;15.60;10.25;;;;;;;12.74;55.47;101237.00;4221351;28;20085;-59
2021/11/21 03:10:42;;;;;;;15.18;10.23;;;;;;;12.89;55.42;101260.22;4221101;28;20367;-59
2021/11/21 03:12:53;;;;;;;15.90;10.77;;;;;;;12.72;55.37;101228.28;4221194;28;20059;-57
2021/11/21 03:14:55;;;;;;;16.30;10.00;;;;;;;12.88;55.53;101250.56;4221140;28;20065;-58
2021/11/21 03:17:00;;;;;;;;;;;;;;;12.88;55.60;101255.84;4221656;28;20044;-57
2021/11/21 03:19:02;;;;;;;16.30;10.15;;;;;;;12.87;55.18;101245.34;4221206;28;19919;-58
2021/11/21 03:21:04;;;;;;;15.98;10.07;;;;;;;12.87;55.47;101246.19;4221147;28;20048;-60
2021/11/21 03:23:06;;;;;;;;;;;;;;;12.86;55.39;101244.47;4221538;28;20048;-57
2021/11/21 03:25:10;;;;;;;15.75;9.98;;;;;;;12.86;55.69;101244.47;4221265;28;19915;-57
2021/11/21 03:27:13;;;;;;;17.55;11.07;;;;;;;12.81;55.45;101234.97;4221108;28;20484;-58
2021/11/21 03:29:15;;;;;;;16.45;10.68;;;;;;;12.87;55.28;101240.06;4221172;28;20044;-60
2021/11/21 03:31:18;;;;;;;17.15;11.18;;;;;;;12.86;55.54;101240.97;4220946;28;20274;-58
2021/11/21 03:33:20;;;;;;;16.77;10.82;;;;;;;12.82;55.41;101231.44;4220927;28;20044;-58
2021/11/21 03:35:22;;;;;;;;;;;;;;;12.84;55.49;101241.00;4221940;28;20035;-57
2021/11/21 03:37:24;;;;;;;16.92;10.32;;;;;;;12.84;55.39;101234.88;4213016;28;19924;-58
2021/11/21 03:39:27;;;;;;;16.90;10.35;;;;;;;12.84;55.27;101230.47;4224369;28;20340;-60
2021/11/21 03:41:29;;;;;;;;;;;;;;;12.83;55.64;101227.88;4224482;28;20063;-58
2021/11/21 03:43:31;;;;;;;17.05;10.65;;;;;;;12.82;55.41;101224.38;4224331;28;19915;-60
2021/11/21 03:45:33;;;;;;;;;;;;;;;12.83;55.62;101227.88;4224582;28;20073;-59
2021/11/21 03:47:35;;;;;;;15.50;10.52;;;;;;;12.81;55.39;101222.66;4224007;28;19920;-58
2021/11/21 03:49:38;;;;;;;17.50;10.77;;;;;;;12.80;55.35;101223.56;4224094;28;20051;-60
2021/11/21 03:51:40;;;;;;;16.42;10.60;;;;;;;12.81;55.36;101225.31;4223886;28;20051;-59
2021/11/21 03:53:42;;;;;;;;;;;;;;;12.81;55.66;101227.06;4224585;28;20271;-59
2021/11/21 03:55:46;;;;;;;15.23;10.05;;;;;;;12.78;55.78;101231.56;4223836;28;20393;-59
2021/11/21 03:57:48;;;;;;;17.70;10.43;;;;;;;12.78;55.44;101231.56;4223879;28;20039;-59
2021/11/21 03:59:50;;;;;;;17.88;10.90;;;;;;;12.80;55.37;101239.41;4224032;28;20036;-58
2021/11/21 04:01:55;;;;;;;17.58;10.50;;;;;;;12.78;55.59;101231.56;4223915;28;20044;-59
2021/11/21 04:03:57;;;;;;;15.25;10.18;;;;;;;12.80;55.27;101233.28;4223905;28;20044;-58
2021/11/21 04:06:00;;;;;;;16.20;10.60;;;;;;;12.80;55.46;101235.94;4223831;28;20101;-58
2021/11/21 04:08:01;;;;;;;;;;;;;;;12.77;55.31;101227.19;4224096;28;20332;-56
2021/11/21 04:10:04;;;;;;;17.07;10.57;;;;;;;12.77;55.48;101226.31;4223943;28;19923;-62
2021/11/21 04:12:07;;;;;;;16.85;10.55;;;;;;;12.76;55.59;101230.75;4223490;28;20286;-56
2021/11/21 04:14:09;;;;;;;16.33;11.10;;;;;;;12.76;55.45;101217.56;4223769;28;20090;-55
2021/11/21 04:16:11;;;;;;;16.35;10.50;;;;;;;12.77;55.83;101213.13;4223598;28;20347;-56
2021/11/21 04:18:13;;;;;;;17.85;11.02;;;;;;;12.76;55.47;101206.16;4223651;28;20097;-58
2021/11/21 04:20:16;;;;;;;17.95;10.70;;;;;;;12.77;55.23;101208.72;4223802;28;20043;-58
2021/11/21 04:22:18;;;;;;;17.90;11.23;;;;;;;12.77;55.60;101208.72;4223528;28;20093;-59
2021/11/21 04:24:20;;;;;;;;;;;;;;;12.75;55.70;101207.91;4224091;28;20085;-56
2021/11/21 04:26:22;;;;;;;17.20;10.77;;;;;;;12.59;55.65;101177.75;4223635;28;19916;-56
2021/11/21 04:28:24;;;;;;;17.95;10.75;;;;;;;12.74;55.41;101203.53;4223372;28;20304;-59
2021/11/21 04:30:26;;;;;;;;;;;;;;;12.74;55.42;101200.91;4207199;28;20240;-55
2021/11/21 04:32:30;;;;;;;18.25;10.45;;;;;;;12.74;55.46;101202.69;4214166;28;19942;-58
2021/11/21 04:34:32;;;;;;;16.38;9.95;;;;;;;12.74;55.65;101200.06;4223526;28;20047;-56
2021/11/21 04:36:34;;;;;;;17.33;11.05;;;;;;;12.73;55.68;101198.31;4223399;28;20221;-58
2021/11/21 04:38:37;;;;;;;;;;;;;;;12.74;55.77;101189.50;4223694;28;20044;-58
2021/11/21 04:40:39;;;;;;;17.13;10.90;;;;;;;12.71;55.45;101189.59;4223221;28;19916;-57
2021/11/21 04:42:41;;;;;;;;;;;;;;;12.72;55.58;101186.91;4223627;28;20483;-57
2021/11/21 04:44:44;;;;;;;17.85;10.32;;;;;;;12.71;55.72;101187.84;4223342;28;19960;-58
2021/11/21 04:46:46;;;;;;;;;;;;;;;12.71;55.72;101187.84;4223234;28;20109;-57
2021/11/21 04:48:48;;;;;;;16.55;10.25;;;;;;;12.70;55.71;101180.84;4222994;28;19961;-56
2021/11/21 04:50:51;;;;;;;;;;;;;;;12.70;55.63;101180.84;4223722;28;20050;-58
2021/11/21 04:52:52;;;;;;;;;;;;;;;12.69;55.80;101179.09;4223555;28;19961;-60
2021/11/21 04:54:55;;;;;;;17.88;10.98;;;;;;;12.65;55.94;101166.97;4223078;28;20200;-60
2021/11/21 04:56:57;;;;;;;19.23;11.10;;;;;;;12.69;55.74;101176.47;4223125;28;20044;-58
2021/11/21 04:58:59;;;;;;;;;;;;;;;12.69;55.59;101173.81;4223371;28;20040;-59
2021/11/21 05:01:01;;;;;;;19.25;11.43;;;;;;;12.68;55.66;101172.09;4223177;28;19916;-60
2021/11/21 05:03:04;;;;;;;17.83;10.95;;;;;;;12.69;55.50;101170.34;4222867;28;20040;-59
2021/11/21 05:05:08;;;;;;;19.25;11.30;;;;;;;12.68;55.82;101169.47;4222780;28;20039;-59
2021/11/21 05:07:10;;;;;;;18.27;10.77;;;;;;;12.68;55.55;101168.63;4222980;28;20047;-60
2021/11/21 05:09:12;;;;;;;18.33;10.05;;;;;;;12.68;56.04;101169.47;4222734;28;20094;-58
2021/11/21 05:11:14;;;;;;;;;;;;;;;12.68;55.89;101172.09;4223451;28;20044;-58
2021/11/21 05:13:16;;;;;;;18.27;10.73;;;;;;;12.63;55.61;101151.16;4222705;28;19938;-60
2021/11/21 05:15:21;;;;;;;17.85;10.73;;;;;;;12.67;55.89;101164.25;4222732;28;20044;-60
2021/11/21 05:17:23;;;;;;;18.65;10.80;;;;;;;12.67;55.84;101154.53;4222890;28;20331;-58
2021/11/21 05:19:25;;;;;;;20.42;11.57;;;;;;;12.67;55.92;101151.91;4222556;28;20372;-61
2021/11/21 05:21:33;;;;;;;17.25;10.82;;;;;;;12.65;55.74;101148.47;4222499;28;20044;-59
2021/11/21 05:23:35;;;;;;;18.42;11.20;;;;;;;12.66;55.83;101147.56;4222706;28;20047;-61
2021/11/21 05:25:37;;;;;;;17.50;10.93;;;;;;;12.67;55.89;101151.06;4222668;28;20044;-58
2021/11/21 05:27:43;;;;;;;18.20;11.07;;;;;;;12.66;55.81;101150.22;4222738;28;20040;-59
2021/11/21 05:29:45;;;;;;;17.75;11.10;;;;;;;12.62;55.87;101138.91;4222403;28;20072;-59
2021/11/21 05:31:47;;;;;;;;;;;;;;;12.66;55.95;101141.41;4223100;28;20047;-57
2021/11/21 05:33:49;;;;;;;18.20;10.50;;;;;;;12.65;55.82;101147.59;4222415;28;19923;-57
2021/11/21 05:35:51;;;;;;;17.90;10.95;;;;;;;12.61;55.73;101131.91;4222312;28;20052;-57
2021/11/21 05:37:54;;;;;;;18.90;10.80;;;;;;;12.64;55.64;101141.47;4222474;28;20044;-58
2021/11/21 05:39:56;;;;;;;18.00;10.60;;;;;;;12.64;55.83;101144.13;4222166;28;20077;-56
2021/11/21 05:41:58;;;;;;;;;;;;;;;12.63;55.97;101140.59;4222919;28;20077;-58
2021/11/21 05:44:02;;;;;;;17.02;10.13;;;;;;;12.63;55.77;101139.75;4222227;28;19920;-59
2021/11/21 05:46:04;;;;;;;18.35;10.95;;;;;;;12.62;55.81;101131.00;4222157;28;20081;-57
2021/11/21 05:48:07;;;;;;;18.08;10.70;;;;;;;12.63;55.93;101130.03;4222191;28;20036;-58
2021/11/21 05:50:12;;;;;;;;;;;;;;;12.61;55.83;101137.19;4222464;28;20040;-58
2021/11/21 05:52:15;;;;;;;17.45;10.07;;;;;;;12.60;55.79;101139.84;4222179;28;19923;-57
2021/11/21 05:54:17;;;;;;;;;;;;;;;12.62;55.76;101140.66;4222652;28;20081;-57
2021/11/21 05:56:20;;;;;;;18.35;11.07;;;;;;;12.59;55.78;101136.38;4222045;28;19968;-57
2021/11/21 05:58:23;;;;;;;18.35;10.38;;;;;;;12.61;56.23;101136.31;4221322;28;20046;-56
2021/11/21 06:00:27;;;;;;;16.75;9.90;;;;;;;12.61;55.94;101134.53;4221997;28;20059;-56
2021/11/21 06:02:30;;;;;;;16.85;9.85;;;;;;;12.60;55.83;101124.91;4222052;28;20043;-54
2021/11/21 06:04:34;;;;;;;16.42;10.07;;;;;;;12.57;55.98;101111.81;4222032;28;20046;-58
2021/11/21 06:06:36;;;;;;;15.57;9.77;;;;;;;12.61;56.02;101125.75;4221798;28;20413;-53
2021/11/21 06:08:38;;;;;;;16.60;9.95;;;;;;;12.61;55.75;101120.47;4221789;28;20248;-56
2021/11/21 06:10:41;;;;;;;15.93;10.00;;;;;;;12.56;55.82;101125.06;4221660;28;20069;-58
2021/11/21 06:12:44;;;;;;;16.30;9.93;;;;;;;12.60;56.07;101114.34;4221793;28;20047;-58
2021/11/21 06:14:46;;;;;;;16.75;9.85;;;;;;;12.55;55.76;101104.88;4221932;28;20336;-54
2021/11/21 06:16:49;;;;;;;;;;;;;;;12.60;56.19;101116.97;4222034;28;20081;-55
2021/11/21 06:18:51;;;;;;;;;;;;;;;12.58;56.12;101118.81;4222071;28;20154;-56
2021/11/21 06:20:53;;;;;;;16.63;9.52;;;;;;;12.57;55.81;101109.16;4221606;28;19916;-54
2021/11/21 06:22:55;;;;;;;17.27;10.23;;;;;;;12.57;56.03;101111.81;4221703;28;20059;-57
2021/11/21 06:24:57;;;;;;;16.67;9.82;;;;;;;12.57;56.07;101105.69;4221737;28;20044;-57
2021/11/21 06:27:00;;;;;;;17.00;9.88;;;;;;;12.56;55.86;101101.31;4221484;28;20044;-58
2021/11/21 06:29:02;;;;;;;16.30;9.68;;;;;;;12.58;56.01;101102.97;4221515;28;20040;-57
2021/11/21 06:31:04;;;;;;;15.30;9.57;;;;;;;12.55;55.74;101099.59;4221374;28;20047;-58
2021/11/21 06:33:06;;;;;;;;;;;;;;;12.43;55.97;101082.44;4221921;28;20044;-56
2021/11/21 06:35:09;;;;;;;16.02;9.27;;;;;;;12.52;55.89;101097.09;4221442;28;20124;-57
2021/11/21 06:37:11;;;;;;;16.60;9.60;;;;;;;12.56;56.07;101110.09;4221128;28;20164;-57
2021/11/21 06:39:13;;;;;;;;;;;;;;;12.56;56.14;101123.28;4221928;28;20044;-57
2021/11/21 06:41:15;;;;;;;16.77;10.02;;;;;;;12.56;55.99;101117.16;4221530;28;19924;-58
2021/11/21 06:43:17;;;;;;;15.60;8.98;;;;;;;12.55;55.86;101112.78;4221546;28;20320;-56
2021/11/21 06:45:19;;;;;;;;;;;;;;;12.55;56.04;101113.66;4221939;28;20097;-57
2021/11/21 06:47:22;;;;;;;15.60;8.85;;;;;;;12.54;56.09;101111.94;4221204;28;19922;-57
2021/11/21 06:49:24;;;;;;;16.23;8.98;;;;;;;12.53;56.00;101110.22;4221377;28;20085;-57
2021/11/21 06:51:29;;;;;;;14.68;9.15;;;;;;;12.56;55.94;101114.50;4221369;28;20084;-56
2021/11/21 06:53:31;;;;;;;15.52;9.40;;;;;;;12.55;55.93;101124.22;4217938;28;20044;-56
2021/11/21 06:55:33;;;;;;;;;;;;;;;12.54;55.97;101117.22;4221936;28;20044;-57
2021/11/21 06:57:35;;;;;;;16.70;8.85;;;;;;;12.53;55.77;101107.56;4221217;28;19953;-56
2021/11/21 06:59:38;;;;;;;14.90;8.70;;;;;;;12.54;56.16;101105.78;4221376;28;20044;-56
2021/11/21 07:01:41;;;;;;;;;;;;;;;12.53;56.21;101104.94;4221695;28;20274;-59
2021/11/21 07:03:43;;;;;;;17.85;9.80;;;;;;;12.52;55.89;101105.84;4221149;28;20223;-58
2021/11/21 07:05:47;;;;;;;15.18;9.32;;;;;;;12.53;55.85;101106.72;4216962;28;20047;-57
2021/11/21 07:07:49;;;;;;;15.88;9.27;;;;;;;12.50;56.21;101098.91;4221046;28;20220;-57
2021/11/21 07:09:51;;;;;;;14.77;8.82;;;;;;;12.53;55.88;101107.56;4222470;28;20048;-58
2021/11/21 07:11:53;;;;;;;;;;;;;;;12.53;56.06;101106.72;4225063;28;20039;-57
2021/11/21 07:13:55;;;;;;;15.30;9.45;;;;;;;12.51;56.20;101108.56;4222403;28;19919;-57
2021/11/21 07:15:58;;;;;;;16.20;9.32;;;;;;;12.39;56.26;101086.13;4207977;28;20052;-57
2021/11/21 07:18:00;;;;;;;;;;;;;;;12.51;56.04;101112.03;4212719;28;20048;-57
2021/11/21 07:20:03;;;;;;;13.75;8.05;;;;;;;12.51;56.13;101113.84;4223368;28;19916;-57
2021/11/21 07:22:05;;;;;;;15.65;8.38;;;;;;;12.46;55.87;101098.16;4223622;28;20066;-58
2021/11/21 07:24:08;;;;;;;16.02;8.60;;;;;;;12.50;56.34;101102.41;4224083;28;20050;-59
2021/11/21 07:26:11;;;;;;;15.93;9.20;;;;;;;12.50;56.02;101110.31;4222240;28;20070;-57
2021/11/21 07:28:13;;;;;;;13.10;8.18;;;;;;;12.50;56.16;101105.03;4223567;28;20040;-57
2021/11/21 07:30:16;;;;;;;;;;;;;;;12.49;56.31;101098.06;4223292;28;20044;-58
2021/11/21 07:32:18;;;;;;;16.00;8.32;;;;;;;12.49;56.05;101095.44;4224615;28;19916;-59
2021/11/21 07:34:20;;;;;;;15.23;8.68;;;;;;;12.48;56.07;101098.09;4224194;28;20043;-60
2021/11/21 07:36:22;;;;;;;14.23;8.45;;;;;;;12.49;55.97;101091.91;4222930;28;20048;-57
2021/11/21 07:38:24;;;;;;;15.55;8.88;;;;;;;12.49;55.98;101095.44;4222024;28;20040;-58
2021/11/21 07:40:26;;;;;;;15.43;8.57;;;;;;;12.49;56.06;101092.78;4223933;28;20089;-56
2021/11/21 07:42:28;;;;;;;14.70;8.98;;;;;;;12.46;56.16;101091.09;4224229;28;20085;-60
2021/11/21 07:44:31;;;;;;;14.02;8.65;;;;;;;12.48;56.12;101091.06;4223952;28;20051;-57
2021/11/21 07:46:33;;;;;;;;;;;;;;;12.49;56.36;101094.56;4223738;28;20048;-59
2021/11/21 07:48:36;;;;;;;13.43;7.88;;;;;;;12.48;56.20;101093.72;4223674;28;19916;-57
2021/11/21 07:50:38;;;;;;;15.68;8.32;;;;;;;12.46;56.26;101087.63;4222837;28;20636;-59
2021/11/21 07:52:42;;;;;;;14.07;8.25;;;;;;;12.45;56.05;101093.81;4223456;28;20235;-57
2021/11/21 07:54:45;;;;;;;14.20;8.10;;;;;;;12.48;56.19;101096.34;4223746;28;20285;-57
2021/11/21 07:56:47;;;;;;;13.57;7.80;;;;;;;12.48;56.12;101096.34;4224028;28;20141;-60
2021/11/21 07:58:50;;;;;;;14.20;8.38;;;;;;;12.48;56.21;101098.97;4223813;28;20358;-59
2021/11/21 08:00:52;;;;;;;12.30;7.72;;;;;;;12.48;56.31;101093.72;4223435;28;20039;-57
2021/11/21 08:02:54;;;;;;;14.13;7.93;;;;;;;12.48;56.42;101092.81;4221872;28;20066;-57
2021/11/21 08:04:56;;;;;;;14.00;7.90;;;;;;;12.48;56.33;101095.47;4223633;28;20230;-58
2021/11/21 08:06:59;;;;;;;14.15;7.97;;;;;;;12.27;56.28;101056.66;4223478;28;20085;-58
2021/11/21 08:09:01;;;;;;;13.48;8.15;;;;;;;12.46;55.97;101084.97;4223241;28;20044;-57
2021/11/21 08:11:05;;;;;;;13.30;7.78;;;;;;;12.47;56.13;101081.44;4219660;28;20351;-57
2021/11/21 08:13:08;;;;;;;13.68;7.82;;;;;;;12.46;56.28;101080.56;4223818;28;20044;-59
2021/11/21 08:15:10;;;;;;;14.25;7.68;;;;;;;12.46;56.36;101087.63;4223013;28;20097;-57
2021/11/21 08:17:12;;;;;;;;;;;;;;;12.46;56.31;101079.72;4223934;28;20044;-58
2021/11/21 08:19:14;;;;;;;13.90;7.63;;;;;;;12.47;56.21;101091.97;4222636;28;19924;-57
2021/11/21 08:21:16;;;;;;;13.88;7.70;;;;;;;12.44;56.37;101076.25;4221927;28;20044;-56
2021/11/21 08:23:19;;;;;;;13.25;7.60;;;;;;;12.43;56.21;101079.81;4222117;28;20081;-58
2021/11/21 08:25:21;;;;;;;;;;;;;;;12.45;56.19;101083.25;4224066;28;20048;-57
2021/11/21 08:27:23;;;;;;;13.80;7.72;;;;;;;12.44;56.14;101084.16;4223612;28;19916;-57
2021/11/21 08:29:25;;;;;;;;;;;;;;;12.45;56.37;101085.91;4223386;28;20040;-54
2021/11/21 08:31:32;;;;;;;13.55;7.40;;;;;;;12.45;55.99;101085.91;4223055;28;19916;-57
2021/11/21 08:33:35;;;;;;;14.25;7.57;;;;;;;12.44;56.32;101090.31;4205790;28;20093;-56
2021/11/21 08:35:38;;;;;;;12.35;7.40;;;;;;;12.30;56.27;101058.31;4213661;28;20081;-58
2021/11/21 08:37:40;;;;;;;12.27;7.43;;;;;;;12.45;56.12;101091.16;4223420;28;20540;-57
2021/11/21 08:39:42;;;;;;;12.90;7.75;;;;;;;12.45;56.19;101091.16;4223413;28;20048;-58
2021/11/21 08:41:44;;;;;;;;;;;;;;;12.44;56.36;101090.31;4222400;28;20097;-59
2021/11/21 08:43:46;;;;;;;15.65;7.72;;;;;;;12.44;56.46;101095.59;4223228;28;20112;-58
2021/11/21 08:45:48;;;;;;;13.18;7.55;;;;;;;12.44;56.52;101086.81;4222333;28;20328;-59
2021/11/21 08:47:52;;;;;;;13.57;7.85;;;;;;;12.38;56.21;101082.63;4221424;28;20048;-59
2021/11/21 08:49:54;;;;;;;12.77;7.32;;;;;;;12.32;56.42;101071.44;4222918;28;20066;-57
2021/11/21 08:51:56;;;;;;;10.88;6.90;;;;;;;12.45;56.33;101093.81;4222868;28;20039;-57
2021/11/21 08:53:58;;;;;;;12.68;7.63;;;;;;;12.44;56.24;101089.44;4222665;28;20044;-57
2021/11/21 08:56:00;;;;;;;12.98;7.55;;;;;;;12.44;56.38;101090.31;4220267;28;20534;-58
2021/11/21 08:58:04;;;;;;;12.70;7.10;;;;;;;12.43;56.37;101087.72;4222380;28;20374;-57
2021/11/21 09:00:09;;;;;;;12.65;7.50;;;;;;;12.44;56.10;101089.44;4223197;28;20251;-58
2021/11/21 09:02:11;;;;;;;11.80;7.05;;;;;;;12.44;56.40;101087.69;4222806;28;20324;-57
2021/11/21 09:04:13;;;;;;;12.40;7.57;;;;;;;12.45;56.53;101084.13;4220340;28;20040;-56
2021/11/21 09:06:15;;;;;;;;;;;;;;;12.44;56.30;101077.13;4222267;28;20077;-57
2021/11/21 09:08:17;;;;;;;11.40;7.13;;;;;;;12.44;56.14;101086.81;4222826;28;19916;-58
2021/11/21 09:10:21;;;;;;;10.82;6.40;;;;;;;12.44;56.48;101081.53;4221784;28;20089;-57
2021/11/21 09:12:23;;;;;;;12.43;7.22;;;;;;;12.43;56.57;101072.78;4222623;28;20267;-56
2021/11/21 09:14:26;;;;;;;12.02;7.07;;;;;;;12.44;56.29;101061.31;4221943;28;20044;-57
2021/11/21 09:16:28;;;;;;;12.18;6.88;;;;;;;12.44;56.40;101056.03;4222615;28;20058;-59
2021/11/21 09:18:30;;;;;;;;;;;;;;;12.45;56.31;101064.78;4222863;28;20328;-57
2021/11/21 09:20:32;;;;;;;10.93;6.32;;;;;;;12.44;56.20;101063.94;4222877;28;19916;-57
2021/11/21 09:22:34;;;;;;;12.90;7.20;;;;;;;12.44;56.30;101071.84;4222201;28;20085;-59
2021/11/21 09:24:36;;;;;;;12.15;6.80;;;;;;;12.46;56.27;101077.91;4222181;28;20040;-57
2021/11/21 09:26:39;;;;;;;12.40;7.32;;;;;;;12.45;56.15;101085.91;4220911;28;20040;-59
2021/11/21 09:28:41;;;;;;;12.13;7.25;;;;;;;12.45;56.31;101081.50;4222301;28;20044;-59
2021/11/21 09:30:43;;;;;;;11.32;6.45;;;;;;;12.44;56.46;101092.09;4222305;28;20048;-57